sensor_id;sensor_type;location;lat;lon;timestamp;P1;durP1;ratioP1;P2;durP2;ratioP2
6499;SDS011;3283;52.330;9.772;2023-03-01T08:08:26;134.37;;;52.27;;
6499;SDS011;3283;52.330;9.772;2023-03-01T08:10:51;142.00;;;54.10;;
6499;SDS011;3283;52.330;9.772;2023-03-01T08:13:17;153.50;;;60.27;;
6499;SDS011;3283;52.330;9.772;2023-03-01T08:15:47;165.63;;;60.73;;
6499;SDS011;3283;52.330;9.772;2023-03-01T08:18:13;169.00;;;61.70;;
6499;SDS011;3283;52.330;9.772;2023-03-01T08:20:39;140.57;;;57.90;;
6499;SDS011;3283;52.330;9.772;2023-03-01T08:23:04;142.53;;;58.97;;
6499;SDS011;3283;52.330;9.772;2023-03-01T08:25:30;136.47;;;63.70;;
6499;SDS011;3283;52.330;9.772;2023-03-01T09:36:46;170.47;;;67.90;;
6499;SDS011;3283;52.330;9.772;2023-03-01T09:39:12;170.30;;;74.20;;
6499;SDS011;3283;52.330;9.772;2023-03-01T09:42:10;166.63;;;75.55;;
6499;SDS011;3283;52.330;9.772;2023-03-01T09:44:35;207.00;;;86.17;;
6499;SDS011;3283;52.330;9.772;2023-03-01T09:47:05;212.47;;;74.50;;
6499;SDS011;3283;52.330;9.772;2023-03-01T09:49:45;194.90;;;73.53;;
6499;SDS011;3283;52.330;9.772;2023-03-01T09:52:29;167.43;;;82.40;;
6499;SDS011;3283;52.330;9.772;2023-03-01T09:55:01;165.30;;;85.23;;
6499;SDS011;3283;52.330;9.772;2023-03-01T09:57:36;146.50;;;69.90;;
6499;SDS011;3283;52.330;9.772;2023-03-01T10:02:57;139.60;;;76.93;;
6499;SDS011;3283;52.330;9.772;2023-03-01T10:10:52;141.23;;;73.33;;
6499;SDS011;3283;52.330;9.772;2023-03-01T10:13:26;128.30;;;76.10;;
6499;SDS011;3283;52.330;9.772;2023-03-01T10:16:18;113.87;;;68.27;;
6499;SDS011;3283;52.330;9.772;2023-03-01T10:18:58;129.30;;;71.87;;
6499;SDS011;3283;52.330;9.772;2023-03-01T10:21:27;135.47;;;69.17;;
6499;SDS011;3283;52.330;9.772;2023-03-01T10:23:56;138.97;;;76.03;;
6499;SDS011;3283;52.330;9.772;2023-03-01T18:44:49;187.98;;;87.90;;
6499;SDS011;3283;52.330;9.772;2023-03-01T18:47:15;175.90;;;87.17;;
6499;SDS011;3283;52.330;9.772;2023-03-01T18:49:40;169.20;;;76.70;;
6499;SDS011;3283;52.330;9.772;2023-03-01T18:52:06;146.37;;;72.53;;
6499;SDS011;3283;52.330;9.772;2023-03-01T18:54:31;153.00;;;74.37;;
6499;SDS011;3283;52.330;9.772;2023-03-01T18:56:56;151.37;;;81.70;;
6499;SDS011;3283;52.330;9.772;2023-03-01T18:59:22;133.60;;;71.50;;
6499;SDS011;3283;52.330;9.772;2023-03-01T19:01:47;112.47;;;64.07;;
6499;SDS011;3283;52.330;9.772;2023-03-01T19:04:12;128.60;;;76.23;;
6499;SDS011;3283;52.330;9.772;2023-03-01T19:06:38;128.97;;;70.80;;
6499;SDS011;3283;52.330;9.772;2023-03-01T19:09:04;119.50;;;67.27;;
6499;SDS011;3283;52.330;9.772;2023-03-01T19:11:31;128.33;;;69.97;;
6499;SDS011;3283;52.330;9.772;2023-03-01T19:13:58;119.10;;;71.30;;
6499;SDS011;3283;52.330;9.772;2023-03-01T19:16:24;131.43;;;78.20;;
6499;SDS011;3283;52.330;9.772;2023-03-01T19:19:00;132.50;;;76.83;;
6499;SDS011;3283;52.330;9.772;2023-03-01T19:21:28;114.27;;;65.37;;
6499;SDS011;3283;52.330;9.772;2023-03-01T19:23:58;140.17;;;75.63;;
